sensor_id;sensor_type;location;lat;lon;timestamp;P1;durP1;ratioP1;P2;durP2;ratioP2
50104;SDS011;47690;39.202;-77.198;2024-03-02T00:02:12;2.05;;;1.80;;
50104;SDS011;47690;39.202;-77.198;2024-03-02T00:04:46;3.60;;;2.30;;
50104;SDS011;47690;39.202;-77.198;2024-03-02T00:07:19;2.90;;;2.28;;
50104;SDS011;47690;39.202;-77.198;2024-03-02T00:09:51;4.97;;;2.92;;
50104;SDS011;47690;39.202;-77.198;2024-03-02T00:12:22;4.90;;;3.30;;
50104;SDS011;47690;39.202;-77.198;2024-03-02T00:14:51;4.32;;;3.03;;
50104;SDS011;47690;39.202;-77.198;2024-03-02T00:17:24;4.28;;;2.80;;
50104;SDS011;47690;39.202;-77.198;2024-03-02T00:20:09;2.42;;;2.22;;
50104;SDS011;47690;39.202;-77.198;2024-03-02T00:22:45;2.15;;;1.95;;
50104;SDS011;47690;39.202;-77.198;2024-03-02T00:25:18;2.08;;;1.70;;
50104;SDS011;47690;39.202;-77.198;2024-03-02T00:27:48;2.00;;;1.80;;
50104;SDS011;47690;39.202;-77.198;2024-03-02T00:33:21;2.08;;;1.95;;
50104;SDS011;47690;39.202;-77.198;2024-03-02T00:35:51;3.05;;;1.80;;
50104;SDS011;47690;39.202;-77.198;2024-03-02T00:38:22;3.03;;;1.77;;
50104;SDS011;47690;39.202;-77.198;2024-03-02T00:40:53;2.10;;;1.90;;
50104;SDS011;47690;39.202;-77.198;2024-03-02T00:46:38;2.45;;;2.22;;
50104;SDS011;47690;39.202;-77.198;2024-03-02T00:51:44;2.83;;;2.03;;
50104;SDS011;47690;39.202;-77.198;2024-03-02T00:54:20;2.50;;;2.10;;
50104;SDS011;47690;39.202;-77.198;2024-03-02T00:57:07;3.22;;;1.85;;
50104;SDS011;47690;39.202;-77.198;2024-03-02T00:59:44;1.65;;;1.50;;
50104;SDS011;47690;39.202;-77.198;2024-03-02T01:02:15;2.95;;;1.80;;
50104;SDS011;47690;39.202;-77.198;2024-03-02T01:04:45;2.22;;;1.75;;
50104;SDS011;47690;39.202;-77.198;2024-03-02T01:07:20;1.65;;;1.55;;
50104;SDS011;47690;39.202;-77.198;2024-03-02T01:09:49;2.22;;;1.70;;
50104;SDS011;47690;39.202;-77.198;2024-03-02T01:12:18;2.08;;;1.70;;
50104;SDS011;47690;39.202;-77.198;2024-03-02T01:14:51;2.00;;;1.80;;
50104;SDS011;47690;39.202;-77.198;2024-03-02T01:17:19;1.73;;;1.63;;
50104;SDS011;47690;39.202;-77.198;2024-03-02T01:19:49;2.10;;;1.80;;
50104;SDS011;47690;39.202;-77.198;2024-03-02T01:22:17;2.10;;;1.90;;
50104;SDS011;47690;39.202;-77.198;2024-03-02T01:24:54;2.08;;;1.88;;
50104;SDS011;47690;39.202;-77.198;2024-03-02T01:27:23;2.85;;;1.85;;
50104;SDS011;47690;39.202;-77.198;2024-03-02T01:29:54;1.95;;;1.75;;
50104;SDS011;47690;39.202;-77.198;2024-03-02T01:32:22;3.63;;;2.50;;
50104;SDS011;47690;39.202;-77.198;2024-03-02T01:34:54;3.00;;;2.55;;
50104;SDS011;47690;39.202;-77.198;2024-03-02T01:37:25;3.75;;;2.35;;
50104;SDS011;47690;39.202;-77.198;2024-03-02T01:39:55;3.53;;;2.13;;
50104;SDS011;47690;39.202;-77.198;2024-03-02T01:42:28;5.70;;;2.20;;
50104;SDS011;47690;39.202;-77.198;2024-03-02T01:45:11;3.30;;;2.13;;
50104;SDS011;47690;39.202;-77.198;2024-03-02T01:47:43;2.40;;;2.10;;
50104;SDS011;47690;39.202;-77.198;2024-03-02T01:50:27;1.92;;;1.83;;
50104;SDS011;47690;39.202;-77.198;2024-03-02T01:53:08;2.33;;;1.88;;
50104;SDS011;47690;39.202;-77.198;2024-03-02T01:58:09;3.00;;;1.75;;
50104;SDS011;47690;39.202;-77.198;2024-03-02T02:01:38;2.83;;;2.10;;
50104;SDS011;47690;39.202;-77.198;2024-03-02T02:04:17;2.53;;;2.10;;
50104;SDS011;47690;39.202;-77.198;2024-03-02T02:06:53;2.92;;;2.25;;
50104;SDS011;47690;39.202;-77.198;2024-03-02T02:09:30;2.45;;;2.00;;
50104;SDS011;47690;39.202;-77.198;2024-03-02T02:12:18;2.20;;;2.00;;
50104;SDS011;47690;39.202;-77.198;2024-03-02T02:14:48;3.78;;;2.28;;
50104;SDS011;47690;39.202;-77.198;2024-03-02T02:17:20;3.15;;;2.42;;
50104;SDS011;47690;39.202;-77.198;2024-03-02T02:19:49;3.97;;;2.67;;
50104;SDS011;47690;39.202;-77.198;2024-03-02T02:22:21;2.60;;;2.05;;
50104;SDS011;47690;39.202;-77.198;2024-03-02T02:24:50;2.80;;;2.10;;
50104;SDS011;47690;39.202;-77.198;2024-03-02T02:27:20;2.20;;;2.00;;
50104;SDS011;47690;39.202;-77.198;2024-03-02T02:29:49;2.10;;;1.85;;
50104;SDS011;47690;39.202;-77.198;2024-03-02T02:32:19;3.03;;;2.03;;
50104;SDS011;47690;39.202;-77.198;2024-03-02T02:34:53;2.45;;;2.20;;
50104;SDS011;47690;39.202;-77.198;2024-03-02T02:37:23;3.08;;;2.05;;
50104;SDS011;47690;39.202;-77.198;2024-03-02T02:39:55;3.45;;;2.35;;
50104;SDS011;47690;39.202;-77.198;2024-03-02T02:42:25;3.33;;;2.35;;
50104;SDS011;47690;39.202;-77.198;2024-03-02T02:44:59;3.53;;;2.15;;
50104;SDS011;47690;39.202;-77.198;2024-03-02T02:47:41;2.45;;;2.10;;
50104;SDS011;47690;39.202;-77.198;2024-03-02T02:50:17;2.55;;;1.92;;
50104;SDS011;47690;39.202;-77.198;2024-03-02T02:52:50;2.95;;;2.10;;
50104;SDS011;47690;39.202;-77.198;2024-03-02T02:55:22;2.05;;;1.73;;
50104;SDS011;47690;39.202;-77.198;2024-03-02T02:57:50;1.92;;;1.80;;
50104;SDS011;47690;39.202;-77.198;2024-03-02T03:00:19;2.35;;;1.83;;
50104;SDS011;47690;39.202;-77.198;2024-03-02T03:02:50;2.10;;;1.90;;
50104;SDS011;47690;39.202;-77.198;2024-03-02T03:05:21;2.45;;;1.88;;
50104;SDS011;47690;39.202;-77.198;2024-03-02T03:07:49;3.08;;;1.90;;
50104;SDS011;47690;39.202;-77.198;2024-03-02T03:10:18;2.47;;;1.90;;
50104;SDS011;47690;39.202;-77.198;2024-03-02T03:12:50;2.03;;;1.83;;
50104;SDS011;47690;39.202;-77.198;2024-03-02T03:15:19;2.83;;;1.98;;
50104;SDS011;47690;39.202;-77.198;2024-03-02T03:17:49;2.17;;;1.95;;
50104;SDS011;47690;39.202;-77.198;2024-03-02T03:20:27;1.90;;;1.80;;
50104;SDS011;47690;39.202;-77.198;2024-03-02T03:22:56;2.30;;;1.77;;
50104;SDS011;47690;39.202;-77.198;2024-03-02T03:25:25;3.05;;;2.03;;
50104;SDS011;47690;39.202;-77.198;2024-03-02T03:28:09;3.13;;;1.98;;
50104;SDS011;47690;39.202;-77.198;2024-03-02T03:30:43;2.85;;;2.05;;
50104;SDS011;47690;39.202;-77.198;2024-03-02T03:33:19;2.65;;;2.20;;
50104;SDS011;47690;39.202;-77.198;2024-03-02T03:35:49;2.65;;;2.20;;
50104;SDS011;47690;39.202;-77.198;2024-03-02T03:38:21;2.90;;;1.90;;
50104;SDS011;47690;39.202;-77.198;2024-03-02T03:40:50;2.63;;;2.28;;
50104;SDS011;47690;39.202;-77.198;2024-03-02T03:43:20;2.88;;;2.50;;
50104;SDS011;47690;39.202;-77.198;2024-03-02T03:45:50;2.40;;;1.95;;
50104;SDS011;47690;39.202;-77.198;2024-03-02T03:48:21;3.20;;;2.20;;
50104;SDS011;47690;39.202;-77.198;2024-03-02T03:50:53;2.78;;;2.05;;
50104;SDS011;47690;39.202;-77.198;2024-03-02T03:53:23;2.65;;;2.10;;
50104;SDS011;47690;39.202;-77.198;2024-03-02T03:55:55;3.08;;;1.98;;
50104;SDS011;47690;39.202;-77.198;2024-03-02T03:58:24;2.08;;;1.88;;
50104;SDS011;47690;39.202;-77.198;2024-03-02T04:00:54;2.30;;;2.10;;
50104;SDS011;47690;39.202;-77.198;2024-03-02T04:03:23;2.45;;;1.90;;
50104;SDS011;47690;39.202;-77.198;2024-03-02T04:05:54;3.13;;;2.10;;
50104;SDS011;47690;39.202;-77.198;2024-03-02T04:08:24;2.75;;;2.25;;
50104;SDS011;47690;39.202;-77.198;2024-03-02T04:11:10;2.30;;;2.00;;
50104;SDS011;47690;39.202;-77.198;2024-03-02T04:13:42;2.90;;;2.10;;
50104;SDS011;47690;39.202;-77.198;2024-03-02T04:16:13;2.72;;;2.10;;
50104;SDS011;47690;39.202;-77.198;2024-03-02T04:18:47;3.20;;;2.00;;
50104;SDS011;47690;39.202;-77.198;2024-03-02T04:21:19;2.60;;;2.03;;
50104;SDS011;47690;39.202;-77.198;2024-03-02T04:23:48;2.80;;;2.10;;
50104;SDS011;47690;39.202;-77.198;2024-03-02T04:26:18;3.13;;;2.33;;
50104;SDS011;47690;39.202;-77.198;2024-03-02T04:28:52;4.43;;;2.10;;
50104;SDS011;47690;39.202;-77.198;2024-03-02T04:31:22;3.25;;;2.05;;
50104;SDS011;47690;39.202;-77.198;2024-03-02T04:33:54;2.45;;;1.95;;
50104;SDS011;47690;39.202;-77.198;2024-03-02T04:36:23;4.15;;;2.20;;
50104;SDS011;47690;39.202;-77.198;2024-03-02T04:38:54;2.13;;;1.90;;
50104;SDS011;47690;39.202;-77.198;2024-03-02T04:41:22;2.45;;;1.90;;
50104;SDS011;47690;39.202;-77.198;2024-03-02T04:43:53;2.17;;;1.88;;
50104;SDS011;47690;39.202;-77.198;2024-03-02T04:46:21;2.33;;;2.10;;
50104;SDS011;47690;39.202;-77.198;2024-03-02T04:48:54;2.40;;;1.83;;
50104;SDS011;47690;39.202;-77.198;2024-03-02T04:51:26;2.65;;;2.22;;
50104;SDS011;47690;39.202;-77.198;2024-03-02T04:53:56;3.42;;;2.22;;
50104;SDS011;47690;39.202;-77.198;2024-03-02T04:56:25;2.45;;;2.00;;
50104;SDS011;47690;39.202;-77.198;2024-03-02T04:59:18;2.63;;;2.05;;
50104;SDS011;47690;39.202;-77.198;2024-03-02T05:01:48;2.00;;;1.80;;
50104;SDS011;47690;39.202;-77.198;2024-03-02T05:04:19;1.85;;;1.70;;
50104;SDS011;47690;39.202;-77.198;2024-03-02T05:06:47;2.40;;;1.88;;
50104;SDS011;47690;39.202;-77.198;2024-03-02T05:09:20;1.77;;;1.67;;
50104;SDS011;47690;39.202;-77.198;2024-03-02T05:11:50;2.15;;;1.98;;
50104;SDS011;47690;39.202;-77.198;2024-03-02T05:14:48;3.50;;;1.90;;
50104;SDS011;47690;39.202;-77.198;2024-03-02T05:17:17;2.95;;;1.92;;
50104;SDS011;47690;39.202;-77.198;2024-03-02T05:19:46;1.90;;;1.80;;
50104;SDS011;47690;39.202;-77.198;2024-03-02T05:22:15;2.00;;;1.83;;
50104;SDS011;47690;39.202;-77.198;2024-03-02T05:24:45;2.95;;;2.00;;
50104;SDS011;47690;39.202;-77.198;2024-03-02T05:27:15;2.53;;;1.80;;
50104;SDS011;47690;39.202;-77.198;2024-03-02T05:29:46;2.00;;;1.80;;
50104;SDS011;47690;39.202;-77.198;2024-03-02T05:32:19;2.10;;;1.90;;
50104;SDS011;47690;39.202;-77.198;2024-03-02T05:34:54;3.38;;;1.90;;
50104;SDS011;47690;39.202;-77.198;2024-03-02T05:37:23;2.47;;;1.95;;
50104;SDS011;47690;39.202;-77.198;2024-03-02T05:39:56;2.70;;;2.00;;
50104;SDS011;47690;39.202;-77.198;2024-03-02T05:42:24;1.98;;;1.80;;
50104;SDS011;47690;39.202;-77.198;2024-03-02T05:44:55;2.28;;;1.98;;
50104;SDS011;47690;39.202;-77.198;2024-03-02T05:47:24;2.03;;;1.90;;
50104;SDS011;47690;39.202;-77.198;2024-03-02T05:49:55;2.75;;;1.98;;
50104;SDS011;47690;39.202;-77.198;2024-03-02T05:52:25;3.72;;;2.03;;
50104;SDS011;47690;39.202;-77.198;2024-03-02T05:55:10;2.60;;;1.90;;
50104;SDS011;47690;39.202;-77.198;2024-03-02T05:57:41;2.20;;;2.00;;
50104;SDS011;47690;39.202;-77.198;2024-03-02T06:00:27;2.90;;;2.00;;
50104;SDS011;47690;39.202;-77.198;2024-03-02T06:02:56;2.25;;;1.90;;
50104;SDS011;47690;39.202;-77.198;2024-03-02T06:05:26;2.47;;;1.95;;
50104;SDS011;47690;39.202;-77.198;2024-03-02T06:07:55;3.47;;;2.25;;
50104;SDS011;47690;39.202;-77.198;2024-03-02T06:10:23;2.20;;;2.00;;
50104;SDS011;47690;39.202;-77.198;2024-03-02T06:12:55;2.15;;;1.95;;
50104;SDS011;47690;39.202;-77.198;2024-03-02T06:15:24;2.28;;;2.00;;
50104;SDS011;47690;39.202;-77.198;2024-03-02T06:17:56;2.83;;;2.00;;
50104;SDS011;47690;39.202;-77.198;2024-03-02T06:20:38;2.25;;;2.00;;
50104;SDS011;47690;39.202;-77.198;2024-03-02T06:23:09;2.42;;;1.95;;
50104;SDS011;47690;39.202;-77.198;2024-03-02T06:25:40;2.20;;;1.92;;
50104;SDS011;47690;39.202;-77.198;2024-03-02T06:28:09;2.00;;;1.80;;
50104;SDS011;47690;39.202;-77.198;2024-03-02T06:30:39;1.83;;;1.70;;
50104;SDS011;47690;39.202;-77.198;2024-03-02T06:33:13;3.10;;;2.10;;
50104;SDS011;47690;39.202;-77.198;2024-03-02T06:35:45;4.03;;;2.30;;
50104;SDS011;47690;39.202;-77.198;2024-03-02T06:38:15;2.08;;;1.88;;
50104;SDS011;47690;39.202;-77.198;2024-03-02T06:40:45;2.65;;;1.80;;
50104;SDS011;47690;39.202;-77.198;2024-03-02T06:43:14;1.88;;;1.77;;
50104;SDS011;47690;39.202;-77.198;2024-03-02T06:45:43;2.60;;;1.80;;
50104;SDS011;47690;39.202;-77.198;2024-03-02T06:48:14;1.92;;;1.73;;
50104;SDS011;47690;39.202;-77.198;2024-03-02T06:50:47;2.10;;;1.90;;
50104;SDS011;47690;39.202;-77.198;2024-03-02T06:53:20;3.10;;;1.83;;
50104;SDS011;47690;39.202;-77.198;2024-03-02T06:55:49;2.65;;;1.80;;
50104;SDS011;47690;39.202;-77.198;2024-03-02T06:58:18;2.03;;;1.83;;
50104;SDS011;47690;39.202;-77.198;2024-03-02T07:00:48;2.05;;;1.85;;
50104;SDS011;47690;39.202;-77.198;2024-03-02T07:03:21;2.10;;;1.90;;
50104;SDS011;47690;39.202;-77.198;2024-03-02T07:05:52;3.40;;;1.83;;
50104;SDS011;47690;39.202;-77.198;2024-03-02T07:08:21;2.03;;;1.65;;
50104;SDS011;47690;39.202;-77.198;2024-03-02T07:10:54;2.60;;;1.90;;
50104;SDS011;47690;39.202;-77.198;2024-03-02T07:13:23;2.00;;;1.80;;
50104;SDS011;47690;39.202;-77.198;2024-03-02T07:15:54;2.33;;;1.80;;
50104;SDS011;47690;39.202;-77.198;2024-03-02T07:18:42;1.90;;;1.80;;
50104;SDS011;47690;39.202;-77.198;2024-03-02T07:21:19;1.85;;;1.67;;
50104;SDS011;47690;39.202;-77.198;2024-03-02T07:23:53;2.20;;;1.67;;
50104;SDS011;47690;39.202;-77.198;2024-03-02T07:26:21;2.10;;;1.90;;
50104;SDS011;47690;39.202;-77.198;2024-03-02T07:28:54;2.05;;;1.80;;
50104;SDS011;47690;39.202;-77.198;2024-03-02T07:31:26;1.90;;;1.80;;
50104;SDS011;47690;39.202;-77.198;2024-03-02T07:33:55;2.85;;;2.03;;
50104;SDS011;47690;39.202;-77.198;2024-03-02T07:36:25;2.10;;;1.90;;
50104;SDS011;47690;39.202;-77.198;2024-03-02T07:38:53;2.25;;;1.90;;
50104;SDS011;47690;39.202;-77.198;2024-03-02T07:41:22;2.00;;;1.80;;
50104;SDS011;47690;39.202;-77.198;2024-03-02T07:43:52;2.22;;;1.80;;
50104;SDS011;47690;39.202;-77.198;2024-03-02T07:46:25;2.10;;;1.90;;
50104;SDS011;47690;39.202;-77.198;2024-03-02T07:48:55;1.95;;;1.77;;
50104;SDS011;47690;39.202;-77.198;2024-03-02T07:51:24;2.40;;;1.83;;
50104;SDS011;47690;39.202;-77.198;2024-03-02T07:53:54;2.00;;;1.80;;
50104;SDS011;47690;39.202;-77.198;2024-03-02T07:56:23;2.50;;;2.20;;
50104;SDS011;47690;39.202;-77.198;2024-03-02T07:58:54;3.17;;;2.10;;
50104;SDS011;47690;39.202;-77.198;2024-03-02T08:01:25;2.95;;;2.00;;
50104;SDS011;47690;39.202;-77.198;2024-03-02T08:03:54;2.33;;;2.10;;
50104;SDS011;47690;39.202;-77.198;2024-03-02T08:06:26;2.33;;;2.00;;
50104;SDS011;47690;39.202;-77.198;2024-03-02T08:09:09;2.75;;;2.05;;
50104;SDS011;47690;39.202;-77.198;2024-03-02T08:11:43;2.20;;;2.00;;
50104;SDS011;47690;39.202;-77.198;2024-03-02T08:14:13;2.30;;;2.10;;
50104;SDS011;47690;39.202;-77.198;2024-03-02T08:16:43;3.40;;;2.30;;
50104;SDS011;47690;39.202;-77.198;2024-03-02T08:19:12;2.70;;;2.08;;
50104;SDS011;47690;39.202;-77.198;2024-03-02T08:21:46;3.63;;;2.33;;
50104;SDS011;47690;39.202;-77.198;2024-03-02T08:24:16;2.65;;;2.25;;
50104;SDS011;47690;39.202;-77.198;2024-03-02T08:26:45;3.53;;;2.40;;
50104;SDS011;47690;39.202;-77.198;2024-03-02T08:29:14;2.25;;;2.05;;
50104;SDS011;47690;39.202;-77.198;2024-03-02T08:31:51;2.72;;;2.30;;
50104;SDS011;47690;39.202;-77.198;2024-03-02T08:34:22;2.72;;;2.20;;
50104;SDS011;47690;39.202;-77.198;2024-03-02T08:36:51;2.38;;;2.17;;
50104;SDS011;47690;39.202;-77.198;2024-03-02T08:39:21;2.40;;;2.20;;
50104;SDS011;47690;39.202;-77.198;2024-03-02T08:41:50;3.80;;;2.60;;
50104;SDS011;47690;39.202;-77.198;2024-03-02T08:44:19;2.25;;;2.05;;
50104;SDS011;47690;39.202;-77.198;2024-03-02T08:46:49;2.22;;;1.90;;
50104;SDS011;47690;39.202;-77.198;2024-03-02T08:49:18;2.42;;;2.20;;
50104;SDS011;47690;39.202;-77.198;2024-03-02T08:51:48;2.78;;;2.30;;
50104;SDS011;47690;39.202;-77.198;2024-03-02T08:54:24;3.20;;;2.42;;
50104;SDS011;47690;39.202;-77.198;2024-03-02T08:56:53;2.67;;;2.20;;
50104;SDS011;47690;39.202;-77.198;2024-03-02T08:59:23;2.97;;;2.20;;
50104;SDS011;47690;39.202;-77.198;2024-03-02T09:01:53;2.75;;;2.22;;
50104;SDS011;47690;39.202;-77.198;2024-03-02T09:04:25;2.47;;;2.28;;
50104;SDS011;47690;39.202;-77.198;2024-03-02T09:07:11;2.92;;;2.60;;
50104;SDS011;47690;39.202;-77.198;2024-03-02T09:09:43;2.72;;;2.40;;
50104;SDS011;47690;39.202;-77.198;2024-03-02T09:12:13;3.75;;;2.40;;
50104;SDS011;47690;39.202;-77.198;2024-03-02T09:14:44;3.15;;;2.55;;
50104;SDS011;47690;39.202;-77.198;2024-03-02T09:17:16;3.45;;;2.40;;
50104;SDS011;47690;39.202;-77.198;2024-03-02T09:19:45;2.75;;;2.50;;
50104;SDS011;47690;39.202;-77.198;2024-03-02T09:22:15;2.67;;;2.40;;
50104;SDS011;47690;39.202;-77.198;2024-03-02T09:24:44;3.00;;;2.47;;
50104;SDS011;47690;39.202;-77.198;2024-03-02T09:27:14;2.70;;;2.22;;
50104;SDS011;47690;39.202;-77.198;2024-03-02T09:29:44;3.38;;;2.35;;
50104;SDS011;47690;39.202;-77.198;2024-03-02T09:32:18;2.90;;;2.50;;
50104;SDS011;47690;39.202;-77.198;2024-03-02T09:34:47;2.92;;;2.47;;
50104;SDS011;47690;39.202;-77.198;2024-03-02T09:37:16;3.05;;;2.55;;
50104;SDS011;47690;39.202;-77.198;2024-03-02T09:39:46;3.03;;;2.60;;
50104;SDS011;47690;39.202;-77.198;2024-03-02T09:42:16;2.85;;;2.42;;
50104;SDS011;47690;39.202;-77.198;2024-03-02T09:44:47;3.47;;;2.70;;
50104;SDS011;47690;39.202;-77.198;2024-03-02T09:47:16;3.03;;;2.60;;
50104;SDS011;47690;39.202;-77.198;2024-03-02T09:49:45;3.33;;;2.70;;
50104;SDS011;47690;39.202;-77.198;2024-03-02T09:52:17;2.95;;;2.40;;
50104;SDS011;47690;39.202;-77.198;2024-03-02T09:54:47;2.83;;;2.50;;
50104;SDS011;47690;39.202;-77.198;2024-03-02T09:57:16;3.03;;;2.67;;
50104;SDS011;47690;39.202;-77.198;2024-03-02T09:59:45;3.30;;;2.88;;
50104;SDS011;47690;39.202;-77.198;2024-03-02T10:02:16;3.20;;;2.53;;
50104;SDS011;47690;39.202;-77.198;2024-03-02T10:04:47;2.60;;;2.38;;
50104;SDS011;47690;39.202;-77.198;2024-03-02T10:07:18;2.88;;;2.53;;
50104;SDS011;47690;39.202;-77.198;2024-03-02T10:09:48;3.28;;;2.70;;
50104;SDS011;47690;39.202;-77.198;2024-03-02T10:12:18;3.25;;;2.60;;
50104;SDS011;47690;39.202;-77.198;2024-03-02T10:14:47;3.40;;;2.78;;
50104;SDS011;47690;39.202;-77.198;2024-03-02T10:17:18;2.88;;;2.55;;
50104;SDS011;47690;39.202;-77.198;2024-03-02T10:19:47;2.92;;;2.55;;
50104;SDS011;47690;39.202;-77.198;2024-03-02T10:22:16;2.80;;;2.50;;
50104;SDS011;47690;39.202;-77.198;2024-03-02T10:24:45;3.05;;;2.72;;
50104;SDS011;47690;39.202;-77.198;2024-03-02T10:27:18;3.40;;;2.50;;
50104;SDS011;47690;39.202;-77.198;2024-03-02T10:29:56;3.33;;;2.65;;
50104;SDS011;47690;39.202;-77.198;2024-03-02T10:32:27;3.35;;;2.65;;
50104;SDS011;47690;39.202;-77.198;2024-03-02T10:34:57;3.17;;;2.55;;
50104;SDS011;47690;39.202;-77.198;2024-03-02T10:37:27;3.67;;;2.60;;
50104;SDS011;47690;39.202;-77.198;2024-03-02T10:39:56;3.47;;;2.80;;
50104;SDS011;47690;39.202;-77.198;2024-03-02T10:42:25;3.35;;;2.70;;
50104;SDS011;47690;39.202;-77.198;2024-03-02T10:44:53;2.92;;;2.55;;
50104;SDS011;47690;39.202;-77.198;2024-03-02T10:47:24;3.88;;;2.67;;
50104;SDS011;47690;39.202;-77.198;2024-03-02T10:49:57;3.20;;;2.55;;
50104;SDS011;47690;39.202;-77.198;2024-03-02T10:52:40;3.10;;;2.55;;
50104;SDS011;47690;39.202;-77.198;2024-03-02T10:55:10;3.55;;;2.70;;
50104;SDS011;47690;39.202;-77.198;2024-03-02T11:00:24;3.40;;;2.42;;
50104;SDS011;47690;39.202;-77.198;2024-03-02T11:03:07;3.28;;;2.80;;
50104;SDS011;47690;39.202;-77.198;2024-03-02T11:05:44;3.13;;;2.60;;
50104;SDS011;47690;39.202;-77.198;2024-03-02T11:08:16;3.90;;;2.72;;
50104;SDS011;47690;39.202;-77.198;2024-03-02T11:10:59;2.90;;;2.60;;
50104;SDS011;47690;39.202;-77.198;2024-03-02T11:13:48;3.00;;;2.38;;
50104;SDS011;47690;39.202;-77.198;2024-03-02T11:16:29;2.72;;;2.38;;
50104;SDS011;47690;39.202;-77.198;2024-03-02T11:19:11;2.90;;;2.38;;
50104;SDS011;47690;39.202;-77.198;2024-03-02T11:21:44;2.40;;;2.20;;
50104;SDS011;47690;39.202;-77.198;2024-03-02T11:26:52;2.63;;;2.30;;
50104;SDS011;47690;39.202;-77.198;2024-03-02T11:32:15;2.70;;;2.25;;
50104;SDS011;47690;39.202;-77.198;2024-03-02T11:34:52;2.53;;;2.00;;
50104;SDS011;47690;39.202;-77.198;2024-03-02T11:37:23;2.22;;;1.90;;
50104;SDS011;47690;39.202;-77.198;2024-03-02T11:39:52;1.88;;;1.77;;
50104;SDS011;47690;39.202;-77.198;2024-03-02T11:42:25;2.38;;;2.17;;
50104;SDS011;47690;39.202;-77.198;2024-03-02T11:44:55;2.20;;;2.00;;
50104;SDS011;47690;39.202;-77.198;2024-03-02T11:47:25;2.13;;;1.92;;
50104;SDS011;47690;39.202;-77.198;2024-03-02T11:50:08;1.83;;;1.73;;
50104;SDS011;47690;39.202;-77.198;2024-03-02T11:52:40;1.90;;;1.80;;
50104;SDS011;47690;39.202;-77.198;2024-03-02T11:55:10;2.00;;;1.90;;
50104;SDS011;47690;39.202;-77.198;2024-03-02T11:57:43;1.85;;;1.75;;
50104;SDS011;47690;39.202;-77.198;2024-03-02T12:00:19;1.70;;;1.60;;
50104;SDS011;47690;39.202;-77.198;2024-03-02T12:02:59;1.90;;;1.80;;
50104;SDS011;47690;39.202;-77.198;2024-03-02T12:05:41;1.70;;;1.60;;
50104;SDS011;47690;39.202;-77.198;2024-03-02T12:08:13;1.63;;;1.52;;
50104;SDS011;47690;39.202;-77.198;2024-03-02T12:10:43;1.98;;;1.88;;
50104;SDS011;47690;39.202;-77.198;2024-03-02T12:13:25;1.75;;;1.65;;
50104;SDS011;47690;39.202;-77.198;2024-03-02T12:15:55;1.65;;;1.55;;
50104;SDS011;47690;39.202;-77.198;2024-03-02T12:18:42;1.50;;;1.40;;
50104;SDS011;47690;39.202;-77.198;2024-03-02T12:21:12;1.73;;;1.63;;
50104;SDS011;47690;39.202;-77.198;2024-03-02T12:23:45;1.65;;;1.55;;
50104;SDS011;47690;39.202;-77.198;2024-03-02T12:26:15;1.70;;;1.60;;
50104;SDS011;47690;39.202;-77.198;2024-03-02T12:28:44;1.23;;;1.23;;
50104;SDS011;47690;39.202;-77.198;2024-03-02T12:31:13;1.25;;;1.25;;
50104;SDS011;47690;39.202;-77.198;2024-03-02T12:33:45;1.70;;;1.60;;
50104;SDS011;47690;39.202;-77.198;2024-03-02T12:36:17;2.10;;;1.50;;
50104;SDS011;47690;39.202;-77.198;2024-03-02T12:38:47;1.27;;;1.27;;
50104;SDS011;47690;39.202;-77.198;2024-03-02T12:41:17;1.23;;;1.20;;
50104;SDS011;47690;39.202;-77.198;2024-03-02T12:43:46;1.42;;;1.35;;
50104;SDS011;47690;39.202;-77.198;2024-03-02T12:46:15;1.35;;;1.30;;
50104;SDS011;47690;39.202;-77.198;2024-03-02T12:48:43;1.42;;;1.40;;
50104;SDS011;47690;39.202;-77.198;2024-03-02T12:51:16;1.40;;;1.30;;
50104;SDS011;47690;39.202;-77.198;2024-03-02T12:53:45;1.55;;;1.45;;
50104;SDS011;47690;39.202;-77.198;2024-03-02T12:56:22;1.40;;;1.40;;
50104;SDS011;47690;39.202;-77.198;2024-03-02T12:58:55;1.67;;;1.58;;
50104;SDS011;47690;39.202;-77.198;2024-03-02T13:01:24;1.55;;;1.45;;
50104;SDS011;47690;39.202;-77.198;2024-03-02T13:03:54;1.20;;;1.20;;
50104;SDS011;47690;39.202;-77.198;2024-03-02T13:06:24;0.98;;;0.98;;
50104;SDS011;47690;39.202;-77.198;2024-03-02T13:09:10;1.13;;;1.13;;
50104;SDS011;47690;39.202;-77.198;2024-03-02T13:11:44;1.50;;;1.40;;
50104;SDS011;47690;39.202;-77.198;2024-03-02T13:14:14;1.48;;;1.38;;
50104;SDS011;47690;39.202;-77.198;2024-03-02T13:16:44;1.10;;;1.10;;
50104;SDS011;47690;39.202;-77.198;2024-03-02T13:19:14;1.30;;;1.30;;
50104;SDS011;47690;39.202;-77.198;2024-03-02T13:21:45;1.33;;;1.23;;
50104;SDS011;47690;39.202;-77.198;2024-03-02T13:24:15;1.23;;;1.23;;
50104;SDS011;47690;39.202;-77.198;2024-03-02T13:26:44;1.20;;;1.20;;
50104;SDS011;47690;39.202;-77.198;2024-03-02T13:29:13;0.80;;;0.80;;
50104;SDS011;47690;39.202;-77.198;2024-03-02T13:31:42;1.00;;;1.00;;
50104;SDS011;47690;39.202;-77.198;2024-03-02T13:34:12;1.02;;;1.02;;
50104;SDS011;47690;39.202;-77.198;2024-03-02T13:36:44;0.95;;;0.95;;
50104;SDS011;47690;39.202;-77.198;2024-03-02T13:39:13;1.15;;;1.10;;
50104;SDS011;47690;39.202;-77.198;2024-03-02T13:41:43;0.90;;;0.90;;
50104;SDS011;47690;39.202;-77.198;2024-03-02T13:44:23;1.40;;;1.33;;
50104;SDS011;47690;39.202;-77.198;2024-03-02T13:46:52;1.17;;;1.17;;
50104;SDS011;47690;39.202;-77.198;2024-03-02T13:49:24;1.00;;;1.00;;
50104;SDS011;47690;39.202;-77.198;2024-03-02T13:51:52;0.90;;;0.90;;
50104;SDS011;47690;39.202;-77.198;2024-03-02T13:54:23;0.93;;;0.93;;
50104;SDS011;47690;39.202;-77.198;2024-03-02T13:56:54;0.98;;;0.98;;
50104;SDS011;47690;39.202;-77.198;2024-03-02T13:59:25;1.00;;;1.00;;
50104;SDS011;47690;39.202;-77.198;2024-03-02T14:01:56;1.10;;;1.10;;
50104;SDS011;47690;39.202;-77.198;2024-03-02T14:04:25;1.10;;;1.10;;
50104;SDS011;47690;39.202;-77.198;2024-03-02T14:06:54;0.93;;;0.93;;
50104;SDS011;47690;39.202;-77.198;2024-03-02T14:09:24;0.90;;;0.90;;
50104;SDS011;47690;39.202;-77.198;2024-03-02T14:11:54;0.93;;;0.93;;
50104;SDS011;47690;39.202;-77.198;2024-03-02T14:14:25;0.98;;;0.98;;
50104;SDS011;47690;39.202;-77.198;2024-03-02T14:16:54;0.95;;;0.95;;
50104;SDS011;47690;39.202;-77.198;2024-03-02T14:19:40;0.90;;;0.90;;
50104;SDS011;47690;39.202;-77.198;2024-03-02T14:22:10;0.60;;;0.60;;
50104;SDS011;47690;39.202;-77.198;2024-03-02T14:24:43;1.00;;;1.00;;
50104;SDS011;47690;39.202;-77.198;2024-03-02T14:27:18;0.82;;;0.82;;
50104;SDS011;47690;39.202;-77.198;2024-03-02T14:30:08;0.90;;;0.90;;
50104;SDS011;47690;39.202;-77.198;2024-03-02T14:32:42;1.10;;;1.10;;
50104;SDS011;47690;39.202;-77.198;2024-03-02T14:35:10;0.98;;;0.98;;
50104;SDS011;47690;39.202;-77.198;2024-03-02T14:37:43;0.85;;;0.85;;
50104;SDS011;47690;39.202;-77.198;2024-03-02T14:40:14;0.80;;;0.80;;
50104;SDS011;47690;39.202;-77.198;2024-03-02T14:42:48;0.98;;;0.98;;
50104;SDS011;47690;39.202;-77.198;2024-03-02T14:45:19;1.20;;;1.10;;
50104;SDS011;47690;39.202;-77.198;2024-03-02T14:47:49;1.05;;;1.05;;
50104;SDS011;47690;39.202;-77.198;2024-03-02T14:50:20;1.13;;;1.13;;
50104;SDS011;47690;39.202;-77.198;2024-03-02T14:52:48;1.10;;;1.10;;
50104;SDS011;47690;39.202;-77.198;2024-03-02T14:55:19;1.10;;;1.10;;
50104;SDS011;47690;39.202;-77.198;2024-03-02T14:57:52;1.30;;;1.30;;
50104;SDS011;47690;39.202;-77.198;2024-03-02T15:00:22;1.13;;;1.13;;
50104;SDS011;47690;39.202;-77.198;2024-03-02T15:02:55;1.30;;;1.30;;
50104;SDS011;47690;39.202;-77.198;2024-03-02T15:05:29;1.20;;;1.20;;
50104;SDS011;47690;39.202;-77.198;2024-03-02T15:08:10;1.00;;;1.00;;
50104;SDS011;47690;39.202;-77.198;2024-03-02T15:10:41;0.77;;;0.77;;